Time;durP1;ratioP1;P1;durP2;ratioP2;P2;SDS_P1;SDS_P2;PMS_P1;PMS_P2;Temp;Humidity;BMP_temperature;BMP_pressure;BME280_temperature;BME280_humidity;BME280_pressure;Samples;Min_cycle;Max_cycle;Signal;HPM_P1;HPM_P2
2022/08/27 00:00:50;;;;;;;12.02;9.20;;;17.80;99.90;;;;;;10141032;29;20205;-86
2022/08/27 00:05:53;;;;;;;15.10;10.18;;;17.80;99.90;;;;;;10140646;29;20562;-87
2022/08/27 00:10:56;;;;;;;13.70;9.23;;;17.90;99.90;;;;;;10138957;29;20622;-87
2022/08/27 00:15:58;;;;;;;17.35;10.27;;;18.00;99.90;;;;;;10140428;29;20217;-86
2022/08/27 00:21:02;;;;;;;16.17;9.45;;;18.10;99.90;;;;;;10140725;29;20252;-87
2022/08/27 00:26:09;;;;;;;18.77;9.43;;;18.00;99.90;;;;;;10139733;29;20205;-87
2022/08/27 00:31:12;;;;;;;16.98;10.70;;;;;;;;;;10139800;29;20233;-87
2022/08/27 00:36:14;;;;;;;17.85;10.52;;;17.70;99.90;;;;;;10137777;29;20236;-87
2022/08/27 00:41:19;;;;;;;18.70;9.77;;;17.50;99.90;;;;;;10137951;29;20240;-87
2022/08/27 00:46:37;;;;;;;15.70;11.38;;;17.30;99.90;;;;;;10138576;29;20204;-86
2022/08/27 00:51:40;;;;;;;17.85;10.65;;;17.40;99.90;;;;;;10137008;29;20575;-86
2022/08/27 00:56:43;;;;;;;15.98;9.43;;;17.40;99.90;;;;;;10136830;29;20269;-87
2022/08/27 01:07:14;;;;;;;21.42;10.68;;;17.10;99.90;;;;;;10138314;29;20247;-87
2022/08/27 01:12:17;;;;;;;18.40;10.55;;;17.10;99.90;;;;;;10137933;29;20208;-87
2022/08/27 01:17:19;;;;;;;25.95;12.45;;;17.10;99.90;;;;;;10136110;29;20599;-87
2022/08/27 01:22:25;;;;;;;15.68;10.88;;;17.10;99.90;;;;;;10135787;29;20209;-86
2022/08/27 01:27:30;;;;;;;18.88;11.60;;;17.10;99.90;;;;;;10137114;29;20209;-87
2022/08/27 01:32:34;;;;;;;20.55;11.25;;;17.00;99.90;;;;;;10137039;29;20216;-87
2022/08/27 01:37:37;;;;;;;19.83;10.88;;;;;;;;;;10137070;29;20268;-86
2022/08/27 01:42:43;;;;;;;16.17;10.90;;;16.70;99.90;;;;;;10136535;29;20248;-87
2022/08/27 01:47:46;;;;;;;17.25;11.60;;;16.70;99.90;;;;;;10135141;29;20233;-87
2022/08/27 01:52:50;;;;;;;24.40;11.10;;;16.60;99.90;;;;;;10134792;29;20276;-87
2022/08/27 01:57:53;;;;;;;17.30;11.93;;;16.50;99.90;;;;;;10134796;29;20224;-87
2022/08/27 02:02:57;;;;;;;13.53;10.87;;;16.50;99.90;;;;;;10135207;29;20196;-87
2022/08/27 02:08:00;;;;;;;20.83;11.10;;;16.40;99.90;;;;;;10134469;29;20753;-87
2022/08/27 02:13:07;;;;;;;14.23;10.90;;;16.30;99.90;;;;;;10135434;29;20204;-87
2022/08/27 02:18:10;;;;;;;21.75;12.55;;;16.30;99.90;;;;;;10134478;29;20236;-87
2022/08/27 02:23:14;;;;;;;17.50;11.60;;;16.20;99.90;;;;;;10134225;29;20233;-87
2022/08/27 02:28:16;;;;;;;18.10;12.50;;;16.20;99.90;;;;;;10134104;29;20245;-86
2022/08/27 02:33:19;;;;;;;18.93;11.57;;;16.20;99.90;;;;;;10134949;29;20236;-86
2022/08/27 02:38:23;;;;;;;15.43;11.93;;;16.10;99.90;;;;;;10133497;29;20283;-87
2022/08/27 02:43:27;;;;;;;23.27;12.60;;;16.00;99.90;;;;;;10134937;29;20225;-87
2022/08/27 02:48:30;;;;;;;19.63;11.10;;;16.00;99.90;;;;;;10135386;29;20561;-86
2022/08/27 02:53:34;;;;;;;14.80;10.37;;;16.00;99.90;;;;;;10133804;29;20271;-87
2022/08/27 02:58:37;;;;;;;13.27;11.47;;;15.90;99.90;;;;;;10134865;29;20224;-87
2022/08/27 03:03:40;;;;;;;19.13;11.73;;;15.90;99.90;;;;;;10135083;29;20200;-87
2022/08/27 03:08:43;;;;;;;19.53;11.50;;;15.80;99.90;;;;;;10133938;29;20236;-86
2022/08/27 03:13:54;;;;;;;18.63;12.55;;;15.90;99.90;;;;;;10138049;29;20256;-87
2022/08/27 03:18:57;;;;;;;17.73;11.97;;;15.90;99.90;;;;;;10142440;29;20606;-87
2022/08/27 03:24:00;;;;;;;16.10;11.43;;;15.80;99.90;;;;;;10140404;29;20737;-87
2022/08/27 03:29:13;;;;;;;14.53;11.97;;;15.70;99.90;;;;;;10141707;29;20551;-86
2022/08/27 03:34:15;;;;;;;18.75;12.93;;;15.60;99.90;;;;;;10141951;29;20670;-87
2022/08/27 03:39:21;;;;;;;21.35;13.60;;;15.60;99.90;;;;;;10140472;29;20272;-86
2022/08/27 03:44:23;;;;;;;16.17;11.83;;;15.70;99.90;;;;;;10139707;29;20208;-87
2022/08/27 03:49:26;;;;;;;20.73;12.43;;;15.60;99.90;;;;;;10139688;29;20766;-87
2022/08/27 03:54:30;;;;;;;15.90;12.23;;;15.50;99.90;;;;;;10141036;29;20200;-87
2022/08/27 03:59:32;;;;;;;20.00;11.70;;;15.60;99.90;;;;;;10140703;29;20268;-86
2022/08/27 04:04:35;;;;;;;16.20;12.10;;;15.70;99.90;;;;;;10139817;29;20205;-87
2022/08/27 04:09:37;;;;;;;15.37;11.47;;;15.60;99.90;;;;;;10140782;29;20204;-87
2022/08/27 04:14:40;;;;;;;17.20;13.13;;;15.60;99.90;;;;;;10139459;29;20682;-87
2022/08/27 04:19:42;;;;;;;16.57;11.87;;;15.80;99.90;;;;;;10138666;29;20232;-86
2022/08/27 04:24:45;;;;;;;15.00;11.80;;;15.70;99.90;;;;;;10138223;29;20204;-87
2022/08/27 04:29:48;;;;;;;17.95;12.63;;;15.70;99.90;;;;;;10138782;29;20220;-87
2022/08/27 04:34:54;;;;;;;19.05;12.38;;;15.90;99.90;;;;;;10123950;29;20208;-86
2022/08/27 04:39:57;;;;;;;16.20;11.60;;;16.00;99.90;;;;;;10139670;29;20242;-87
2022/08/27 04:44:59;;;;;;;16.30;12.95;;;16.00;99.90;;;;;;10139115;29;20260;-87
2022/08/27 04:50:02;;;;;;;21.27;12.10;;;16.10;99.90;;;;;;10138017;29;20197;-87
2022/08/27 04:55:07;;;;;;;17.85;11.98;;;16.20;99.90;;;;;;10138693;29;20620;-87
2022/08/27 05:00:10;;;;;;;17.85;13.30;;;16.20;99.90;;;;;;10121471;29;20241;-86
2022/08/27 05:05:13;;;;;;;20.70;13.63;;;16.20;99.90;;;;;;10138071;29;20196;-87
2022/08/27 05:10:17;;;;;;;18.90;12.70;;;16.30;99.90;;;;;;10136489;29;20284;-87
2022/08/27 05:15:20;;;;;;;16.55;11.65;;;16.40;99.90;;;;;;10136186;29;20217;-87
2022/08/27 05:20:23;;;;;;;15.77;12.90;;;16.40;99.90;;;;;;10137479;29;20662;-87
2022/08/27 05:25:26;;;;;;;17.90;12.30;;;16.40;99.90;;;;;;10136368;29;20200;-87
2022/08/27 05:30:29;;;;;;;19.90;12.77;;;16.50;99.90;;;;;;10135928;29;20607;-87
2022/08/27 05:35:32;;;;;;;18.90;12.38;;;16.60;99.90;;;;;;10136782;29;20780;-86
2022/08/27 05:40:35;;;;;;;20.60;12.53;;;16.80;99.90;;;;;;10136701;29;20304;-86
2022/08/27 05:45:43;;;;;;;24.80;12.73;;;17.10;99.90;;;;;;10135285;29;20276;-86
2022/08/27 05:50:46;;;;;;;18.55;13.88;;;17.30;99.90;;;;;;10136336;29;20793;-87
2022/08/27 05:55:48;;;;;;;26.67;14.20;;;17.50;99.90;;;;;;10136396;29;20264;-87
2022/08/27 06:01:06;;;;;;;26.55;14.38;;;17.70;99.90;;;;;;10135860;29;20197;-87
2022/08/27 06:06:11;;;;;;;20.77;14.02;;;17.80;99.90;;;;;;10135985;29;20204;-87
2022/08/27 06:11:14;;;;;;;21.50;15.00;;;17.90;99.90;;;;;;10134201;29;20212;-87
2022/08/27 06:16:18;;;;;;;18.55;14.40;;;18.10;99.90;;;;;;10136124;29;20271;-86
2022/08/27 06:21:21;;;;;;;14.35;12.18;;;18.30;99.90;;;;;;10135548;29;20208;-86
2022/08/27 06:26:26;;;;;;;15.73;12.77;;;18.70;99.90;;;;;;10134018;29;20245;-86
2022/08/27 06:31:29;;;;;;;15.25;12.35;;;19.10;99.90;;;;;;10134683;29;20212;-86
2022/08/27 06:36:34;;;;;;;17.58;11.80;;;19.50;99.90;;;;;;10133887;29;20224;-86
2022/08/27 06:41:37;;;;;;;15.30;11.15;;;19.90;99.90;;;;;;10134681;29;20212;-86
2022/08/27 06:46:45;;;;;;;19.23;11.68;;;20.00;99.90;;;;;;10135211;29;20212;-86
2022/08/27 06:51:48;;;;;;;17.17;11.57;;;;;;;;;;10142387;29;20753;-86
2022/08/27 06:56:51;;;;;;;15.45;11.90;;;20.60;99.90;;;;;;10143004;29;20224;-86
2022/08/27 07:01:53;;;;;;;19.98;11.88;;;20.80;99.90;;;;;;10142289;29;20733;-86
2022/08/27 07:06:56;;;;;;;12.48;10.38;;;21.00;99.90;;;;;;10141751;29;20200;-86
2022/08/27 07:11:59;;;;;;;14.32;10.77;;;21.40;99.90;;;;;;10141363;29;20216;-86
2022/08/27 07:17:02;;;;;;;17.20;11.93;;;21.80;99.90;;;;;;10140960;29;20224;-86
2022/08/27 07:22:04;;;;;;;17.30;11.32;;;22.00;99.90;;;;;;10140788;29;20248;-86
2022/08/27 07:27:07;;;;;;;19.88;11.88;;;22.20;99.90;;;;;;10142210;29;20646;-86
2022/08/27 07:32:09;;;;;;;13.80;10.32;;;22.40;99.90;;;;;;10140944;29;20200;-87
2022/08/27 07:37:13;;;;;;;19.95;10.52;;;22.60;99.90;;;;;;10141621;29;20287;-86
2022/08/27 07:47:36;;;;;;;14.77;9.30;;;23.10;99.90;;;;;;10141998;29;20564;-86
2022/08/27 07:52:40;;;;;;;13.60;10.18;;;23.40;99.90;;;;;;10139721;29;20212;-86
2022/08/27 07:57:44;;;;;;;12.07;9.50;;;23.60;99.90;;;;;;10140729;29;20264;-86
2022/08/27 08:02:47;;;;;;;12.95;9.65;;;23.70;99.90;;;;;;10140079;29;20228;-86
2022/08/27 08:07:50;;;;;;;14.55;11.02;;;23.90;99.90;;;;;;10138923;29;20277;-86
2022/08/27 08:12:53;;;;;;;14.68;10.23;;;24.00;99.90;;;;;;10140318;29;20589;-86
2022/08/27 08:17:55;;;;;;;14.38;9.95;;;24.10;99.90;;;;;;10138881;29;20757;-86
2022/08/27 08:22:58;;;;;;;15.70;9.35;;;24.30;99.90;;;;;;10139808;29;20229;-86
2022/08/27 08:28:00;;;;;;;14.70;10.25;;;24.40;99.90;;;;;;10139714;29;20208;-86
2022/08/27 08:33:03;;;;;;;10.65;9.18;;;24.60;99.90;;;;;;10138989;29;20209;-86
2022/08/27 08:38:05;;;;;;;12.48;9.23;;;24.70;99.90;;;;;;10137793;29;20283;-86
2022/08/27 08:43:28;;;;;;;11.07;9.75;;;24.90;99.90;;;;;;10138544;29;20255;-86
2022/08/27 08:48:31;;;;;;;12.40;9.82;;;25.00;99.90;;;;;;10137885;29;20620;-86
2022/08/27 08:53:42;;;;;;;15.63;10.70;;;25.10;99.90;;;;;;10137454;29;20201;-86
2022/08/27 08:58:56;;;;;;;10.93;9.05;;;25.20;99.90;;;;;;10137139;29;20303;-86
2022/08/27 09:04:03;;;;;;;9.00;8.13;;;25.30;99.90;;;;;;10137355;29;20244;-86
2022/08/27 09:09:15;;;;;;;11.75;8.77;;;25.40;99.90;;;;;;10138206;29;20629;-86
2022/08/27 09:14:23;;;;;;;10.77;8.45;;;25.40;99.90;;;;;;10141114;29;20237;-87
2022/08/27 09:19:39;;;;;;;10.45;8.50;;;25.50;99.90;;;;;;10138917;29;20304;-86
2022/08/27 09:25:10;;;;;;;14.73;8.95;;;25.50;99.90;;;;;;10136774;29;20221;-86
2022/08/27 09:30:41;;;;;;;10.00;9.10;;;25.70;99.90;;;;;;10136972;29;20208;-86
2022/08/27 09:35:45;;;;;;;9.60;8.65;;;25.70;99.90;;;;;;10137777;29;20555;-86
2022/08/27 09:40:51;;;;;;;10.32;8.75;;;25.80;99.90;;;;;;10137153;29;20240;-86
2022/08/27 09:46:06;;;;;;;10.50;9.40;;;25.80;99.90;;;;;;10135860;29;20237;-86
2022/08/27 09:51:12;;;;;;;11.10;9.90;;;25.70;99.90;;;;;;10136948;29;20196;-87
2022/08/27 09:56:30;;;;;;;19.17;10.30;;;25.80;99.90;;;;;;10136513;29;20205;-86
2022/08/27 10:01:49;;;;;;;9.32;8.30;;;25.90;99.90;;;;;;10135197;29;20196;-86
2022/08/27 10:06:53;;;;;;;11.00;8.70;;;25.90;99.90;;;;;;10136292;29;20200;-86
2022/08/27 10:12:04;;;;;;;10.90;9.60;;;25.90;99.90;;;;;;10135765;29;20204;-86
2022/08/27 10:17:43;;;;;;;13.38;8.60;;;25.80;99.90;;;;;;10136124;29;20220;-86
2022/08/27 10:22:46;;;;;;;11.02;9.88;;;26.10;99.90;;;;;;10133957;29;20200;-86
2022/08/27 10:28:08;;;;;;;11.27;10.18;;;26.40;99.90;;;;;;10134357;29;20264;-86
2022/08/27 10:33:11;;;;;;;11.30;10.30;;;26.00;99.90;;;;;;10135831;29;20678;-86
2022/08/27 10:38:29;;;;;;;13.88;11.30;;;25.80;99.90;;;;;;10135059;29;20228;-86
2022/08/27 10:43:57;;;;;;;12.88;11.50;;;26.10;99.90;;;;;;10135414;29;20203;-86
2022/08/27 10:49:33;;;;;;;14.55;11.02;;;25.90;99.90;;;;;;10135149;29;20204;-86
2022/08/27 10:54:50;;;;;;;13.63;12.32;;;25.80;99.90;;;;;;10135029;29;20267;-86
2022/08/27 11:00:15;;;;;;;13.15;10.30;;;25.80;99.90;;;;;;10134971;29;20216;-86
2022/08/27 11:05:22;;;;;;;12.98;10.40;;;25.90;99.90;;;;;;10133823;29;20232;-86
2022/08/27 11:10:29;;;;;;;12.00;10.80;;;26.00;99.90;;;;;;10134996;29;20280;-86
2022/08/27 11:15:39;;;;;;;12.30;11.20;;;26.20;99.90;;;;;;10133370;29;20678;-86
2022/08/27 11:20:52;;;;;;;11.88;10.57;;;25.90;99.90;;;;;;10134957;29;20264;-86
2022/08/27 11:26:02;;;;;;;12.70;11.50;;;26.10;99.90;;;;;;10134555;29;20240;-86
2022/08/27 11:31:20;;;;;;;13.30;11.90;;;26.00;99.90;;;;;;10134023;29;20256;-86
2022/08/27 11:36:46;;;;;;;14.75;11.27;;;25.90;99.90;;;;;;10140099;29;20673;-86
2022/08/27 11:42:11;;;;;;;12.48;11.18;;;25.90;99.90;;;;;;10021745;29;20581;-86
2022/08/27 11:47:23;;;;;;;12.77;11.48;;;25.90;99.90;;;;;;10021646;29;20650;-86
2022/08/27 11:52:36;;;;;;;14.32;12.82;;;26.00;99.90;;;;;;10021499;29;20214;-86
2022/08/27 11:57:39;;;;;;;14.65;13.23;;;25.90;99.90;;;;;;10005542;29;20234;-86
2022/08/27 12:02:43;;;;;;;13.23;11.93;;;25.90;99.90;;;;;;10021051;29;20211;-86
2022/08/27 12:07:50;;;;;;;12.60;11.10;;;25.80;99.90;;;;;;10005697;29;20206;-86
2022/08/27 12:12:56;;;;;;;11.30;10.20;;;26.00;99.90;;;;;;10020818;29;20563;-86
2022/08/27 12:18:10;;;;;;;13.93;12.13;;;25.90;99.90;;;;;;10091516;29;20232;-86
2022/08/27 12:23:41;;;;;;;11.85;10.48;;;25.90;99.90;;;;;;10140171;29;20200;-86
2022/08/27 12:28:44;;;;;;;13.27;12.00;;;26.10;99.90;;;;;;10123166;29;20241;-86
2022/08/27 12:33:52;;;;;;;13.63;10.43;;;26.30;99.90;;;;;;10139689;29;20255;-86
2022/08/27 12:38:58;;;;;;;11.40;7.10;;;26.30;99.90;;;;;;10138227;29;20710;-86
2022/08/27 12:44:03;;;;;;;14.38;12.93;;;26.30;99.90;;;;;;10138453;29;20208;-86
2022/08/27 12:49:06;;;;;;;14.57;12.52;;;26.20;99.90;;;;;;10138609;29;20616;-86
2022/08/27 12:55:22;;;;;;;14.40;12.90;;;25.90;99.90;;;;;;10137776;29;20626;-86
2022/08/27 13:00:34;;;;;;;13.48;12.10;;;26.20;99.90;;;;;;10136850;29;20592;-86
2022/08/27 13:05:44;;;;;;;12.45;11.18;;;26.20;99.90;;;;;;10136600;29;20213;-86
2022/08/27 13:10:47;;;;;;;14.88;13.30;;;26.40;99.90;;;;;;10136034;29;20320;-86
2022/08/27 13:15:54;;;;;;;14.48;11.82;;;26.30;99.90;;;;;;10136432;29;20220;-86
2022/08/27 13:21:23;;;;;;;13.95;12.45;;;26.20;99.90;;;;;;10136340;29;20786;-86
2022/08/27 13:26:32;;;;;;;13.65;11.95;;;26.10;99.90;;;;;;10136579;29;20189;-86
2022/08/27 13:31:36;;;;;;;12.75;11.48;;;26.10;99.90;;;;;;10120837;29;20287;-85
2022/08/27 13:36:54;;;;;;;15.30;13.63;;;26.10;99.90;;;;;;10135637;29;20635;-85
2022/08/27 13:41:59;;;;;;;13.82;12.45;;;26.00;99.90;;;;;;10136659;29;20272;-85
2022/08/27 13:47:09;;;;;;;13.20;12.00;;;26.10;99.90;;;;;;10135233;29;20209;-85
2022/08/27 13:52:29;;;;;;;14.07;12.55;;;26.10;99.90;;;;;;10135195;29;20255;-85
2022/08/27 13:57:42;;;;;;;13.10;11.85;;;26.10;99.90;;;;;;10136256;29;20267;-85
2022/08/27 14:02:46;;;;;;;10.63;9.25;;;26.30;99.90;;;;;;10135360;29;20200;-85
2022/08/27 14:08:14;;;;;;;13.18;11.95;;;26.40;99.90;;;;;;10134934;29;20237;-85
2022/08/27 14:13:16;;;;;;;12.90;11.70;;;26.30;99.90;;;;;;10134949;29;20208;-85
2022/08/27 14:18:22;;;;;;;13.57;12.20;;;26.30;99.90;;;;;;10134809;29;20220;-85
2022/08/27 14:23:45;;;;;;;13.13;11.82;;;26.30;99.90;;;;;;10135925;29;20197;-85
2022/08/27 14:28:47;;;;;;;13.25;11.95;;;26.30;99.90;;;;;;10135307;29;20204;-85
2022/08/27 14:33:52;;;;;;;12.60;11.32;;;26.40;99.90;;;;;;10135393;29;20204;-85
2022/08/27 14:38:55;;;;;;;14.05;12.57;;;26.40;99.90;;;;;;10134785;29;20232;-85
2022/08/27 14:43:58;;;;;;;13.45;12.05;;;26.30;99.90;;;;;;10135232;29;20208;-85
2022/08/27 14:49:06;;;;;;;13.93;12.43;;;26.30;99.90;;;;;;10135489;29;20201;-85
2022/08/27 14:54:09;;;;;;;13.50;12.13;;;26.30;99.90;;;;;;10134695;29;20564;-85
2022/08/27 14:59:11;;;;;;;13.38;12.13;;;26.40;99.90;;;;;;10134819;29;20816;-85
2022/08/27 15:04:14;;;;;;;13.38;12.02;;;26.50;99.90;;;;;;10133679;29;20197;-85
2022/08/27 15:09:17;;;;;;;13.93;12.43;;;26.50;99.90;;;;;;10136469;29;20200;-85
2022/08/27 15:14:25;;;;;;;14.98;12.45;;;26.40;99.90;;;;;;10142634;29;20259;-85
2022/08/27 15:19:28;;;;;;;14.10;12.70;;;26.40;99.90;;;;;;10142337;29;20287;-85
2022/08/27 15:24:41;;;;;;;15.18;13.63;;;26.40;99.90;;;;;;10140701;29;20259;-85
2022/08/27 15:29:46;;;;;;;14.18;12.77;;;26.30;99.90;;;;;;10140368;29;20208;-85
2022/08/27 15:34:48;;;;;;;13.95;12.55;;;26.30;99.90;;;;;;10140255;29;20764;-85
2022/08/27 15:39:52;;;;;;;13.63;12.38;;;26.30;99.90;;;;;;10141032;29;20236;-85
2022/08/27 15:44:55;;;;;;;13.70;12.30;;;26.30;99.90;;;;;;10141149;29;20240;-85
2022/08/27 15:49:58;;;;;;;14.05;12.75;;;26.30;99.90;;;;;;10139238;29;20208;-85
2022/08/27 15:55:01;;;;;;;13.57;12.27;;;26.30;99.90;;;;;;10139708;29;20616;-85
2022/08/27 16:00:04;;;;;;;13.88;12.05;;;26.30;99.90;;;;;;10140547;29;20261;-85
2022/08/27 16:05:08;;;;;;;14.93;13.50;;;26.30;99.90;;;;;;10140523;29;20204;-85
2022/08/27 16:10:11;;;;;;;13.93;12.63;;;26.30;99.90;;;;;;10123456;29;20264;-85
2022/08/27 16:15:14;;;;;;;13.80;12.32;;;26.20;99.90;;;;;;10140182;29;20217;-85
2022/08/27 16:20:16;;;;;;;14.40;13.00;;;26.20;99.90;;;;;;10137473;29;20777;-86
2022/08/27 16:25:22;;;;;;;14.50;13.10;;;26.10;99.90;;;;;;10140157;29;20221;-86
2022/08/27 16:30:24;;;;;;;13.77;12.40;;;26.00;99.90;;;;;;10137630;29;20690;-86
2022/08/27 16:35:28;;;;;;;13.45;12.15;;;25.90;99.90;;;;;;10139140;29;20616;-86
2022/08/27 16:40:37;;;;;;;13.02;11.73;;;25.80;99.90;;;;;;10137754;29;20237;-87
2022/08/27 16:45:39;;;;;;;12.93;11.63;;;25.70;99.90;;;;;;10138772;29;20567;-87
2022/08/27 16:50:42;;;;;;;11.25;6.82;;;25.50;99.90;;;;;;10138672;29;20205;-87
2022/08/27 16:55:47;;;;;;;13.88;7.03;;;25.10;99.90;;;;;;10137043;29;20699;-87
2022/08/27 17:00:52;;;;;;;10.95;9.27;;;24.80;99.90;;;;;;10136857;29;20261;-86
2022/08/27 17:05:55;;;;;;;12.30;6.38;;;24.40;99.90;;;;;;10137807;29;20204;-86
2022/08/27 17:10:58;;;;;;;17.02;6.15;;;24.30;99.90;;;;;;10136166;29;20208;-86
2022/08/27 17:16:00;;;;;;;15.32;9.70;;;23.90;99.90;;;;;;10137919;29;20236;-86
2022/08/27 17:21:04;;;;;;;24.40;7.47;;;23.70;99.90;;;;;;10136024;29;20275;-86
2022/08/27 17:26:08;;;;;;;26.70;10.38;;;23.90;99.90;;;;;;10136021;29;20205;-87
2022/08/27 17:31:18;;;;;;;22.45;8.88;;;23.30;99.90;;;;;;10136786;29;20212;-87
2022/08/27 17:36:30;;;;;;;18.33;8.80;;;23.00;99.90;;;;;;10135736;29;20195;-87
2022/08/27 17:41:38;;;;;;;19.83;10.63;;;22.80;99.90;;;;;;10136509;29;20636;-87
2022/08/27 17:46:40;;;;;;;23.05;16.70;;;22.60;99.90;;;;;;10135193;29;20232;-86
2022/08/27 17:51:45;;;;;;;23.65;14.13;;;22.40;99.90;;;;;;10136444;29;20205;-87
2022/08/27 17:56:49;;;;;;;30.23;15.35;;;22.50;99.90;;;;;;10136946;29;20623;-87
2022/08/27 18:01:52;;;;;;;36.35;15.77;;;22.30;99.90;;;;;;10134181;29;20290;-86
2022/08/27 18:06:55;;;;;;;19.73;14.75;;;22.10;99.90;;;;;;10135873;29;20256;-86
2022/08/27 18:11:58;;;;;;;28.00;15.90;;;21.90;99.90;;;;;;10133969;29;20498;-86
2022/08/27 18:17:00;;;;;;;29.30;15.50;;;21.70;99.90;;;;;;10135866;29;20592;-86
2022/08/27 18:22:03;;;;;;;26.23;14.80;;;21.60;99.90;;;;;;10133458;29;20232;-86
2022/08/27 18:27:06;;;;;;;23.88;17.70;;;21.40;99.90;;;;;;10134058;29;20200;-86
2022/08/27 18:32:09;;;;;;;38.30;17.75;;;21.40;99.90;;;;;;10133866;29;20260;-87
2022/08/27 18:37:11;;;;;;;32.47;18.02;;;21.20;99.90;;;;;;10134968;29;20655;-86
2022/08/27 18:42:14;;;;;;;28.65;17.45;;;21.20;99.90;;;;;;10134189;29;20638;-86
2022/08/27 18:47:16;;;;;;;26.00;16.50;;;20.90;99.90;;;;;;10134960;29;20564;-87
2022/08/27 18:52:21;;;;;;;25.30;15.90;;;20.80;99.90;;;;;;10133689;29;20213;-86
2022/08/27 18:57:23;;;;;;;29.58;15.18;;;20.70;99.90;;;;;;10132688;29;20219;-87
2022/08/27 19:02:27;;;;;;;35.40;17.20;;;20.70;99.90;;;;;;10134550;29;20220;-87
2022/08/27 19:07:30;;;;;;;23.02;14.10;;;20.50;99.90;;;;;;10134668;29;20200;-87
2022/08/27 19:12:33;;;;;;;27.75;12.77;;;20.40;99.90;;;;;;10134862;29;20624;-87
2022/08/27 19:17:40;;;;;;;23.13;13.32;;;20.30;99.90;;;;;;10133560;29;20237;-87
2022/08/27 19:22:43;;;;;;;21.52;12.85;;;20.20;99.90;;;;;;10134309;29;20264;-87
2022/08/27 19:27:46;;;;;;;24.23;13.98;;;20.10;99.90;;;;;;10134295;29;20257;-87
2022/08/27 19:32:50;;;;;;;23.30;13.65;;;20.00;99.90;;;;;;10134609;29;20205;-87
2022/08/27 19:37:56;;;;;;;21.75;14.05;;;20.00;99.90;;;;;;10133457;29;20240;-87
2022/08/27 19:43:00;;;;;;;35.55;14.25;;;19.80;99.90;;;;;;10133227;29;20228;-87
2022/08/27 19:48:03;;;;;;;43.80;15.82;;;19.70;99.90;;;;;;10132915;29;20200;-86
2022/08/27 19:53:06;;;;;;;39.63;16.45;;;19.70;99.90;;;;;;10134398;29;20200;-87
2022/08/27 19:58:08;;;;;;;24.88;15.88;;;19.70;99.90;;;;;;10124249;29;20216;-86
2022/08/27 20:03:11;;;;;;;26.95;15.43;;;19.60;99.90;;;;;;10139798;29;20232;-87
2022/08/27 20:08:13;;;;;;;31.23;16.15;;;19.50;99.90;;;;;;10139175;29;20670;-87
2022/08/27 20:13:16;;;;;;;31.38;17.92;;;19.30;99.90;;;;;;10138596;29;20216;-87
2022/08/27 20:18:20;;;;;;;38.40;20.95;;;19.30;99.90;;;;;;10140179;29;20205;-86
2022/08/27 20:23:23;;;;;;;32.88;20.42;;;19.20;99.90;;;;;;10140049;29;20224;-86
2022/08/27 20:28:26;;;;;;;33.28;21.90;;;19.20;99.90;;;;;;10138807;29;20204;-87
2022/08/27 20:33:45;;;;;;;54.42;27.80;;;19.20;99.90;;;;;;10137853;29;20208;-87
2022/08/27 20:38:48;;;;;;;47.72;27.67;;;19.10;99.90;;;;;;10138194;29;20284;-86
2022/08/27 20:43:51;;;;;;;30.80;16.52;;;19.10;99.90;;;;;;10137752;29;20245;-87
2022/08/27 20:48:55;;;;;;;21.75;14.63;;;19.10;99.90;;;;;;10139310;29;20255;-87
2022/08/27 20:53:57;;;;;;;22.60;14.68;;;19.20;99.90;;;;;;10138808;29;20201;-87
2022/08/27 21:04:21;;;;;;;33.72;17.63;;;19.10;99.90;;;;;;10137359;29;20559;-86
2022/08/27 21:09:24;;;;;;;34.00;19.02;;;18.80;99.90;;;;;;10136145;29;20212;-87
2022/08/27 21:14:26;;;;;;;32.53;18.90;;;18.70;99.90;;;;;;10137807;29;20205;-86
2022/08/27 21:19:29;;;;;;;30.52;19.40;;;18.70;99.90;;;;;;10136042;29;20574;-87
2022/08/27 21:24:32;;;;;;;29.23;19.25;;;18.70;99.90;;;;;;10136403;29;20224;-87
2022/08/27 21:29:35;;;;;;;28.20;20.83;;;18.70;99.90;;;;;;10136023;29;20632;-87
2022/08/27 21:34:38;;;;;;;33.30;20.63;;;18.60;99.90;;;;;;10135806;29;20322;-87
2022/08/27 21:39:42;;;;;;;31.10;20.33;;;18.70;99.90;;;;;;10135807;29;20236;-87
2022/08/27 21:44:46;;;;;;;31.98;20.58;;;18.60;99.90;;;;;;10136895;29;20212;-87
2022/08/27 21:49:48;;;;;;;33.25;21.50;;;18.50;99.90;;;;;;10135900;29;20204;-86
2022/08/27 21:54:51;;;;;;;37.00;24.23;;;18.40;99.90;;;;;;10135162;29;20212;-86
2022/08/27 21:59:54;;;;;;;34.97;22.75;;;18.40;99.90;;;;;;10136237;29;20228;-87
2022/08/27 22:04:56;;;;;;;34.67;22.77;;;18.50;99.90;;;;;;10136194;29;20201;-86
2022/08/27 22:09:59;;;;;;;33.45;21.55;;;18.70;99.90;;;;;;10134774;29;20200;-87
2022/08/27 22:15:02;;;;;;;33.65;23.27;;;19.00;99.90;;;;;;10135600;29;20200;-86
2022/08/27 22:20:07;;;;;;;29.83;22.55;;;18.90;99.90;;;;;;10133136;29;20236;-87
2022/08/27 22:25:10;;;;;;;27.60;21.58;;;18.80;99.90;;;;;;10133962;29;20208;-87
2022/08/27 22:30:13;;;;;;;31.63;21.25;;;19.00;99.90;;;;;;10135187;29;20575;-87
2022/08/27 22:35:16;;;;;;;32.50;21.20;;;19.10;99.90;;;;;;10135065;29;20208;-87
2022/08/27 22:40:21;;;;;;;26.23;20.77;;;19.10;99.90;;;;;;10133918;29;20774;-87
2022/08/27 22:45:25;;;;;;;32.35;20.67;;;19.00;99.90;;;;;;10134654;29;20579;-87
2022/08/27 22:50:27;;;;;;;29.88;21.50;;;19.10;99.90;;;;;;10133255;29;20208;-87
2022/08/27 22:55:30;;;;;;;30.13;21.75;;;19.00;99.90;;;;;;10133583;29;20208;-87
2022/08/27 23:00:37;;;;;;;29.15;21.55;;;19.10;99.90;;;;;;10135097;29;20216;-86
2022/08/27 23:05:40;;;;;;;33.60;20.83;;;19.10;99.90;;;;;;10133698;29;20548;-87
2022/08/27 23:10:43;;;;;;;29.92;21.35;;;19.00;99.90;;;;;;10135363;29;20236;-87
2022/08/27 23:15:46;;;;;;;26.83;20.20;;;19.00;99.90;;;;;;10133270;29;20201;-87
2022/08/27 23:20:48;;;;;;;25.95;20.92;;;18.90;99.90;;;;;;10133240;29;20303;-87
2022/08/27 23:31:12;;;;;;;33.75;22.20;;;18.70;99.90;;;;;;10138603;29;20208;-87
2022/08/27 23:36:15;;;;;;;31.30;22.45;;;18.50;99.90;;;;;;10141614;29;20208;-87
2022/08/27 23:41:17;;;;;;;33.75;21.58;;;18.40;99.90;;;;;;10141135;29;20292;-87
2022/08/27 23:46:20;;;;;;;34.42;23.05;;;18.50;99.90;;;;;;10141126;29;20200;-87
2022/08/27 23:51:23;;;;;;;27.13;21.65;;;18.50;99.90;;;;;;10141546;29;20611;-86
2022/08/27 23:56:25;;;;;;;40.33;22.58;;;18.60;99.90;;;;;;10139976;29;20209;-87
